createdAt,value
2019-03-21T00:02:15.580Z,99815.15
2019-03-21T00:04:51.808Z,99819.50
2019-03-21T00:07:24.192Z,99820.00
2019-03-21T00:10:22.827Z,99820.41
2019-03-21T00:12:55.474Z,99823.05
2019-03-21T00:15:34.715Z,99819.20
2019-03-21T00:18:13.284Z,99825.25
2019-03-21T00:20:46.023Z,99823.94
2019-03-21T00:23:18.704Z,99827.83
2019-03-21T00:25:51.371Z,99832.55
2019-03-21T00:28:24.113Z,99832.15
2019-03-21T00:30:58.634Z,99827.03
2019-03-21T00:33:31.446Z,99829.19
2019-03-21T00:36:04.123Z,99828.37
2019-03-21T00:38:36.784Z,99833.63
2019-03-21T00:41:09.464Z,99831.52
2019-03-21T00:43:42.123Z,99832.77
2019-03-21T00:46:14.802Z,99830.21
2019-03-21T00:48:47.472Z,99831.96
2019-03-21T00:51:20.138Z,99824.69
2019-03-21T00:53:52.839Z,99828.13
2019-03-21T00:56:25.511Z,99833.78
2019-03-21T00:58:59.244Z,99829.40
2019-03-21T01:01:31.926Z,99823.46
2019-03-21T01:04:04.576Z,99823.09
2019-03-21T01:06:37.230Z,99821.39
2019-03-21T01:09:12.087Z,99825.28
2019-03-21T01:11:44.736Z,99823.58
2019-03-21T01:14:29.186Z,99825.34
2019-03-21T01:16:53.374Z,99825.34
2019-03-21T01:19:26.121Z,99827.49
2019-03-21T01:22:00.012Z,99824.09
2019-03-21T01:24:32.683Z,99814.19
2019-03-21T01:27:05.359Z,99817.69
2019-03-21T01:29:37.994Z,99813.31
2019-03-21T01:32:10.774Z,99810.79
2019-03-21T01:34:44.700Z,99817.69
2019-03-21T01:37:18.519Z,99812.94
2019-03-21T01:39:51.292Z,99807.84
2019-03-21T01:42:24.021Z,99807.95
2019-03-21T01:44:56.716Z,99805.38
2019-03-21T01:47:29.370Z,99808.88
2019-03-21T01:50:02.121Z,99805.08
2019-03-21T01:52:36.038Z,99801.64
2019-03-21T01:55:11.487Z,99799.93
2019-03-21T01:57:44.179Z,99799.95
2019-03-21T02:00:21.884Z,99805.61
2019-03-21T02:02:56.434Z,99793.13
2019-03-21T02:05:29.577Z,99797.48
2019-03-21T02:08:02.308Z,99799.65
2019-03-21T02:10:35.132Z,99797.97
2019-03-21T02:13:07.927Z,99791.54
2019-03-21T02:15:40.886Z,99799.31
2019-03-21T02:18:13.775Z,99795.87
2019-03-21T02:20:46.427Z,99799.38
2019-03-21T02:23:19.062Z,99795.08
2019-03-21T02:25:51.743Z,99791.23
2019-03-21T02:28:24.513Z,99789.98
2019-03-21T02:30:57.314Z,99787.92
2019-03-21T02:33:34.034Z,99787.49
2019-03-21T02:36:08.429Z,99791.78
2019-03-21T02:38:42.317Z,99790.92
2019-03-21T02:41:15.461Z,99790.89
2019-03-21T02:43:48.113Z,99792.20
2019-03-21T02:46:20.770Z,99788.75
2019-03-21T02:48:54.690Z,99785.34
2019-03-21T02:51:27.484Z,99784.08
2019-03-21T02:54:00.122Z,99784.56
2019-03-21T02:56:32.789Z,99782.84
2019-03-21T02:59:05.719Z,99785.88
2019-03-21T03:01:38.530Z,99781.59
2019-03-21T03:04:11.181Z,99781.13
2019-03-21T03:06:44.002Z,99785.91
2019-03-21T03:09:16.633Z,99785.48
2019-03-21T03:11:49.420Z,99781.19
2019-03-21T03:14:22.087Z,99784.11
2019-03-21T03:16:54.855Z,99784.26
2019-03-21T03:19:27.564Z,99788.13
2019-03-21T03:22:00.286Z,99793.35
2019-03-21T03:24:35.016Z,99786.53
2019-03-21T03:27:07.664Z,99783.06
2019-03-21T03:29:40.466Z,99783.97
2019-03-21T03:32:13.154Z,99782.23
2019-03-21T03:34:45.921Z,99790.78
2019-03-21T03:37:18.695Z,99788.22
2019-03-21T03:39:51.402Z,99783.03
2019-03-21T03:42:24.364Z,99784.83
2019-03-21T03:44:57.034Z,99784.02
2019-03-21T03:47:29.757Z,99785.77
2019-03-21T03:50:02.600Z,99786.20
2019-03-21T03:52:35.403Z,99781.52
2019-03-21T03:55:09.750Z,99779.36
2019-03-21T03:57:42.517Z,99781.08
2019-03-21T04:00:17.990Z,99782.78
2019-03-21T04:02:52.287Z,99783.62
2019-03-21T04:05:24.945Z,99786.15
2019-03-21T04:07:57.745Z,99780.59
2019-03-21T04:10:33.933Z,99779.30
2019-03-21T04:13:06.607Z,99777.11
2019-03-21T04:15:51.619Z,99780.98
2019-03-21T04:18:13.861Z,99781.45
2019-03-21T04:20:47.833Z,99774.12
2019-03-21T04:23:21.201Z,99774.15
2019-03-21T04:26:04.757Z,99762.15
2019-03-21T04:28:37.482Z,99764.30
2019-03-21T04:31:10.170Z,99772.86
2019-03-21T04:33:43.681Z,99768.14
2019-03-21T04:36:16.353Z,99772.86
2019-03-21T04:38:49.111Z,99763.91
2019-03-21T04:41:21.815Z,99769.52
2019-03-21T04:43:54.566Z,99765.22
2019-03-21T04:46:27.333Z,99772.13
2019-03-21T04:48:59.989Z,99767.41
2019-03-21T04:51:32.696Z,99767.39
2019-03-21T04:54:06.883Z,99777.24
2019-03-21T04:56:39.993Z,99773.00
2019-03-21T04:59:12.763Z,99770.81
2019-03-21T05:01:45.472Z,99772.11
2019-03-21T05:04:18.146Z,99779.00
2019-03-21T05:06:50.886Z,99777.75
2019-03-21T05:09:23.594Z,99772.58
2019-03-21T05:11:56.423Z,99773.40
2019-03-21T05:14:29.042Z,99774.27
2019-03-21T05:17:02.824Z,99776.03
2019-03-21T05:19:36.631Z,99782.83
2019-03-21T05:22:09.285Z,99780.63
2019-03-21T05:24:43.257Z,99779.79
2019-03-21T05:27:16.062Z,99785.73
2019-03-21T05:29:48.857Z,99785.37
2019-03-21T05:32:21.526Z,99790.52
2019-03-21T05:34:54.153Z,99791.38
2019-03-21T05:37:26.808Z,99788.80
2019-03-21T05:39:59.427Z,99790.05
2019-03-21T05:42:32.099Z,99793.89
2019-03-21T05:45:04.946Z,99799.02
2019-03-21T05:47:37.609Z,99796.31
2019-03-21T05:50:14.955Z,99796.92
2019-03-21T05:52:46.952Z,99798.83
2019-03-21T05:55:20.577Z,99792.95
2019-03-21T05:57:53.222Z,99798.73
2019-03-21T06:00:34.859Z,99795.38
2019-03-21T06:03:15.799Z,99804.56
2019-03-21T06:05:56.204Z,99804.70
2019-03-21T06:08:33.167Z,99803.44
2019-03-21T06:11:07.098Z,99807.26
2019-03-21T06:13:39.871Z,99808.70
2019-03-21T06:16:13.272Z,99809.20
2019-03-21T06:19:33.301Z,99813.30
2019-03-21T06:22:52.356Z,99804.73
2019-03-21T06:26:22.325Z,99802.73
2019-03-21T06:28:55.089Z,99804.58
2019-03-21T06:31:27.739Z,99803.31
2019-03-21T06:34:00.387Z,99806.13
2019-03-21T06:36:34.107Z,99808.46
2019-03-21T06:39:09.482Z,99811.55
2019-03-21T06:41:42.206Z,99812.03
2019-03-21T06:44:14.575Z,99809.30
2019-03-21T06:46:49.777Z,99810.36
2019-03-21T06:49:21.437Z,99816.80
2019-03-21T06:51:53.814Z,99820.77
2019-03-21T06:54:26.186Z,99819.07
2019-03-21T06:56:58.766Z,99816.48
2019-03-21T06:59:31.142Z,99816.95
2019-03-21T07:02:03.514Z,99817.87
2019-03-21T07:04:35.889Z,99818.74
2019-03-21T07:07:08.768Z,99812.97
2019-03-21T07:09:41.157Z,99816.75
2019-03-21T07:12:13.553Z,99817.46
2019-03-21T07:14:45.925Z,99817.75
2019-03-21T07:17:19.389Z,99814.85
2019-03-21T07:19:51.774Z,99816.01
2019-03-21T07:22:24.128Z,99819.11
2019-03-21T07:24:56.586Z,99816.28
2019-03-21T07:27:29.002Z,99817.39
2019-03-21T07:30:01.362Z,99814.36
2019-03-21T07:32:33.821Z,99828.67
2019-03-21T07:35:07.994Z,99829.52
2019-03-21T07:37:40.447Z,99830.63
2019-03-21T07:40:14.065Z,99824.63
2019-03-21T07:42:46.475Z,99823.59
2019-03-21T07:45:18.868Z,99825.48
2019-03-21T07:47:51.311Z,99825.77
2019-03-21T07:50:23.681Z,99829.55
2019-03-21T07:53:00.253Z,99815.92
2019-03-21T07:55:35.931Z,99814.01
2019-03-21T07:58:09.312Z,99807.19
2019-03-21T08:00:41.680Z,99812.55
2019-03-21T08:03:14.056Z,99820.49
2019-03-21T08:05:46.418Z,99817.16
2019-03-21T08:08:18.819Z,99818.06
2019-03-21T08:10:51.186Z,99814.57
2019-03-21T08:13:23.558Z,99814.19
2019-03-21T08:15:55.928Z,99810.76
2019-03-21T08:18:28.304Z,99820.23
2019-03-21T08:21:00.683Z,99815.22
2019-03-21T08:23:33.201Z,99812.25
2019-03-21T08:26:05.592Z,99808.73
2019-03-21T08:28:37.985Z,99817.91
2019-03-21T08:31:18.484Z,99816.09
2019-03-21T08:33:51.380Z,99811.33
2019-03-21T08:36:23.768Z,99811.30
2019-03-21T08:38:57.921Z,99821.52
2019-03-21T08:41:30.348Z,99814.39
2019-03-21T08:44:02.779Z,99812.78
2019-03-21T08:46:35.319Z,99811.45
2019-03-21T08:49:07.735Z,99812.28
2019-03-21T08:51:40.116Z,99822.17
2019-03-21T08:54:12.522Z,99816.45
2019-03-21T08:56:44.900Z,99814.26
2019-03-21T08:59:21.344Z,99813.66
2019-03-21T09:01:53.934Z,99816.95
2019-03-21T09:04:26.398Z,99813.86
2019-03-21T09:06:58.850Z,99813.98
2019-03-21T09:09:31.253Z,99816.48
2019-03-21T09:12:03.656Z,99801.75
2019-03-21T09:14:36.171Z,99811.55
2019-03-21T09:17:08.556Z,99808.52
2019-03-21T09:19:40.948Z,99808.56
2019-03-21T09:22:15.875Z,99812.42
2019-03-21T09:24:47.432Z,99805.80
2019-03-21T09:27:19.859Z,99811.35
2019-03-21T09:29:53.717Z,99809.94
2019-03-21T09:32:26.504Z,99795.30
2019-03-21T09:34:59.042Z,99794.95
2019-03-21T09:37:31.478Z,99803.64
2019-03-21T09:40:04.466Z,99799.52
2019-03-21T09:42:36.964Z,99787.80
2019-03-21T09:45:09.717Z,99791.71
2019-03-21T09:47:42.118Z,99782.66
2019-03-21T09:50:26.853Z,99791.32
2019-03-21T09:52:59.239Z,99785.41
2019-03-21T09:55:31.602Z,99793.40
2019-03-21T09:58:03.988Z,99790.45
2019-03-21T10:00:37.372Z,99784.62
2019-03-21T10:03:09.724Z,99781.48
2019-03-21T10:05:42.101Z,99780.89
2019-03-21T10:08:14.477Z,99793.77
2019-03-21T10:10:46.861Z,99774.93
2019-03-21T10:13:19.227Z,99776.30
2019-03-21T10:15:51.596Z,99769.62
2019-03-21T10:18:23.992Z,99765.91
2019-03-21T10:20:56.431Z,99762.38
2019-03-21T10:23:28.814Z,99760.97
2019-03-21T10:26:01.219Z,99760.73
2019-03-21T10:28:33.583Z,99750.59
2019-03-21T10:31:05.987Z,99748.63
2019-03-21T10:33:38.378Z,99753.09
2019-03-21T10:36:10.843Z,99745.41
2019-03-21T10:38:43.222Z,99738.10
2019-03-21T10:41:15.948Z,99738.00
2019-03-21T10:43:48.370Z,99727.70
2019-03-21T10:46:20.824Z,99728.84
2019-03-21T10:48:53.203Z,99732.45
2019-03-21T10:51:25.629Z,99746.36
2019-03-21T10:53:58.163Z,99724.39
2019-03-21T10:56:30.589Z,99725.02
2019-03-21T10:59:02.959Z,99725.59
2019-03-21T11:01:35.629Z,99725.56
2019-03-21T11:04:07.989Z,99716.22
2019-03-21T11:06:40.425Z,99726.45
2019-03-21T11:09:12.804Z,99718.16
2019-03-21T11:11:45.274Z,99716.70
2019-03-21T11:14:17.953Z,99714.28
2019-03-21T11:16:50.370Z,99714.58
2019-03-21T11:19:22.747Z,99717.77
2019-03-21T11:22:05.791Z,99703.42
2019-03-21T11:24:29.289Z,99705.09
2019-03-21T11:27:01.779Z,99708.64
2019-03-21T11:29:34.176Z,99706.25
2019-03-21T11:32:06.880Z,99703.69
2019-03-21T11:34:39.275Z,99694.25
2019-03-21T11:37:11.651Z,99689.77
2019-03-21T11:39:44.298Z,99690.23
2019-03-21T11:42:16.671Z,99695.22
2019-03-21T11:44:49.578Z,99682.46
2019-03-21T11:47:22.956Z,99683.52
2019-03-21T11:49:55.395Z,99674.16
2019-03-21T11:52:27.768Z,99668.23
2019-03-21T11:55:00.458Z,99657.78
2019-03-21T11:57:33.171Z,99661.92
2019-03-21T12:00:06.547Z,99647.94
2019-03-21T12:02:38.918Z,99651.05
2019-03-21T12:05:11.530Z,99645.88
2019-03-21T12:07:43.965Z,99642.84
2019-03-21T12:10:17.152Z,99643.77
2019-03-21T12:12:49.552Z,99639.88
2019-03-21T12:15:21.934Z,99637.38
2019-03-21T12:17:54.309Z,99637.00
2019-03-21T12:20:36.648Z,99641.48
2019-03-21T12:23:09.148Z,99629.94
2019-03-21T12:25:41.558Z,99629.16
2019-03-21T12:28:13.931Z,99615.75
2019-03-21T12:30:46.345Z,99615.81
2019-03-21T12:33:18.734Z,99606.35
2019-03-21T12:35:51.139Z,99605.56
2019-03-21T12:38:23.496Z,99610.03
2019-03-21T12:40:55.897Z,99595.48
2019-03-21T12:43:28.278Z,99592.45
2019-03-21T12:46:00.664Z,99591.66
2019-03-21T12:48:33.042Z,99593.80
2019-03-21T12:51:05.631Z,99591.41
2019-03-21T12:53:39.041Z,99598.13
2019-03-21T12:56:11.428Z,99582.23
2019-03-21T12:58:43.945Z,99581.94
2019-03-21T13:01:16.389Z,99576.27
2019-03-21T13:03:48.799Z,99573.40
2019-03-21T13:06:21.202Z,99577.62
2019-03-21T13:08:53.778Z,99580.53
2019-03-21T13:11:26.238Z,99572.70
2019-03-21T13:13:58.625Z,99571.50
2019-03-21T13:16:32.614Z,99566.26
2019-03-21T13:19:05.077Z,99568.58
2019-03-21T13:21:37.502Z,99560.79
2019-03-21T13:24:09.886Z,99556.22
2019-03-21T13:26:42.383Z,99560.27
2019-03-21T13:29:15.935Z,99562.28
2019-03-21T13:31:48.389Z,99555.70
2019-03-21T13:34:20.765Z,99555.94
2019-03-21T13:36:53.228Z,99546.17
2019-03-21T13:39:25.811Z,99541.66
2019-03-21T13:41:58.194Z,99538.72
2019-03-21T13:44:30.872Z,99540.34
2019-03-21T13:47:03.250Z,99536.95
2019-03-21T13:49:35.816Z,99538.38
2019-03-21T13:52:08.178Z,99533.77
2019-03-21T13:54:40.614Z,99525.20
2019-03-21T13:57:13.031Z,99529.19
2019-03-21T13:59:45.503Z,99529.70
2019-03-21T14:02:17.885Z,99528.59
2019-03-21T14:04:50.258Z,99521.45
2019-03-21T14:07:22.643Z,99515.66
2019-03-21T14:09:55.052Z,99515.96
2019-03-21T14:12:28.501Z,99516.70
2019-03-21T14:15:01.904Z,99517.41
2019-03-21T14:17:34.430Z,99513.69
2019-03-21T14:20:08.139Z,99510.61
2019-03-21T14:22:40.624Z,99508.31
2019-03-21T14:25:13.138Z,99503.16
2019-03-21T14:27:45.575Z,99508.39
2019-03-21T14:30:19.755Z,99498.42
2019-03-21T14:32:52.224Z,99498.32
2019-03-21T14:35:24.620Z,99493.85
2019-03-21T14:37:58.084Z,99501.61
2019-03-21T14:40:30.535Z,99489.87
2019-03-21T14:43:02.985Z,99495.69
2019-03-21T14:45:35.394Z,99493.81
2019-03-21T14:48:08.750Z,99487.69
2019-03-21T14:50:41.129Z,99492.02
2019-03-21T14:53:13.508Z,99498.38
2019-03-21T14:55:47.726Z,99493.85
2019-03-21T14:58:20.019Z,99491.71
2019-03-21T15:00:52.404Z,99490.02
2019-03-21T15:03:24.984Z,99489.77
2019-03-21T15:05:57.377Z,99483.92
2019-03-21T15:08:29.927Z,99483.30
2019-03-21T15:11:02.318Z,99482.33
2019-03-21T15:13:34.845Z,99494.55
2019-03-21T15:16:07.393Z,99483.09
2019-03-21T15:18:39.794Z,99479.80
2019-03-21T15:21:12.192Z,99480.80
2019-03-21T15:23:44.604Z,99474.19
2019-03-21T15:26:16.963Z,99476.85
2019-03-21T15:28:49.372Z,99472.17
2019-03-21T15:31:21.757Z,99475.81
2019-03-21T15:33:54.174Z,99477.50
2019-03-21T15:36:26.561Z,99474.66
2019-03-21T15:38:58.969Z,99479.27
2019-03-21T15:41:31.333Z,99476.73
2019-03-21T15:44:03.713Z,99480.70
2019-03-21T15:46:36.107Z,99470.38
2019-03-21T15:49:08.508Z,99467.02
2019-03-21T15:51:40.939Z,99467.05
2019-03-21T15:54:13.343Z,99465.59
2019-03-21T15:56:45.712Z,99464.59
2019-03-21T15:59:18.104Z,99465.32
2019-03-21T16:01:50.487Z,99469.58
2019-03-21T16:04:22.896Z,99472.70
2019-03-21T16:06:55.362Z,99467.22
2019-03-21T16:09:27.827Z,99467.43
2019-03-21T16:12:00.249Z,99471.48
2019-03-21T16:14:32.607Z,99470.55
2019-03-21T16:17:05.019Z,99468.13
2019-03-21T16:19:38.093Z,99471.59
2019-03-21T16:22:11.544Z,99468.95
2019-03-21T16:24:43.931Z,99467.56
2019-03-21T16:27:16.729Z,99463.41
2019-03-21T16:29:49.111Z,99464.41
2019-03-21T16:32:21.720Z,99465.31
2019-03-21T16:34:54.410Z,99462.67
2019-03-21T16:37:26.774Z,99466.11
2019-03-21T16:39:59.175Z,99468.14
2019-03-21T16:42:31.567Z,99465.52
2019-03-21T16:45:03.987Z,99467.98
2019-03-21T16:47:36.383Z,99469.98
2019-03-21T16:50:09.723Z,99463.41
2019-03-21T16:52:42.168Z,99471.89
2019-03-21T16:55:14.714Z,99475.30
2019-03-21T16:57:47.332Z,99477.55
2019-03-21T17:00:19.797Z,99477.17
2019-03-21T17:02:52.241Z,99471.70
2019-03-21T17:05:24.692Z,99474.20
2019-03-21T17:07:57.084Z,99471.34
2019-03-21T17:10:30.761Z,99473.97
2019-03-21T17:13:04.750Z,99474.72
2019-03-21T17:15:37.488Z,99479.54
2019-03-21T17:18:09.935Z,99474.09
2019-03-21T17:20:42.320Z,99467.92
2019-03-21T17:23:14.771Z,99470.55
2019-03-21T17:25:47.181Z,99475.42
2019-03-21T17:28:19.616Z,99474.98
2019-03-21T17:30:52.015Z,99477.52
2019-03-21T17:33:25.627Z,99477.70
2019-03-21T17:35:58.192Z,99476.88
2019-03-21T17:38:30.681Z,99483.73
2019-03-21T17:41:03.198Z,99486.30
2019-03-21T17:43:35.610Z,99482.84
2019-03-21T17:46:08.070Z,99481.23
2019-03-21T17:48:40.529Z,99484.81
2019-03-21T17:51:14.025Z,99488.10
2019-03-21T17:53:46.477Z,99492.13
2019-03-21T17:56:18.903Z,99481.99
2019-03-21T17:58:51.291Z,99491.29
2019-03-21T18:01:23.947Z,99486.86
2019-03-21T18:03:56.365Z,99485.95
2019-03-21T18:06:28.763Z,99491.55
2019-03-21T18:09:01.259Z,99493.57
2019-03-21T18:11:34.179Z,99495.41
2019-03-21T18:14:06.607Z,99502.31
2019-03-21T18:16:39.131Z,99506.59
2019-03-21T18:19:11.591Z,99499.91
2019-03-21T18:21:44.622Z,99504.59
2019-03-21T18:24:18.762Z,99503.69
2019-03-21T18:26:51.196Z,99508.61
2019-03-21T18:29:24.697Z,99511.17
2019-03-21T18:31:57.173Z,99515.14
2019-03-21T18:34:29.612Z,99518.29
2019-03-21T18:37:02.060Z,99520.98
2019-03-21T18:39:34.529Z,99523.34
2019-03-21T18:42:08.772Z,99526.05
2019-03-21T18:44:41.204Z,99529.39
2019-03-21T18:47:13.636Z,99531.57
2019-03-21T18:49:48.011Z,99530.36
2019-03-21T18:52:20.582Z,99527.30
2019-03-21T18:55:05.397Z,99529.75
2019-03-21T18:57:27.122Z,99532.16
2019-03-21T18:59:59.567Z,99525.86
2019-03-21T19:02:32.005Z,99523.80
2019-03-21T19:05:05.115Z,99528.86
2019-03-21T19:07:37.557Z,99529.09
2019-03-21T19:10:11.405Z,99533.33
2019-03-21T19:12:43.870Z,99532.09
2019-03-21T19:15:16.841Z,99526.70
2019-03-21T19:17:49.246Z,99526.09
2019-03-21T19:20:21.813Z,99528.10
2019-03-21T19:22:54.237Z,99528.41
2019-03-21T19:25:26.650Z,99526.39
2019-03-21T19:27:59.074Z,99529.02
2019-03-21T19:30:31.474Z,99531.17
2019-03-21T19:33:03.864Z,99535.84
2019-03-21T19:35:36.257Z,99537.99
2019-03-21T19:38:08.678Z,99534.11
2019-03-21T19:40:41.089Z,99529.58
2019-03-21T19:43:13.516Z,99532.22
2019-03-21T19:45:45.959Z,99534.74
2019-03-21T19:48:19.529Z,99534.23
2019-03-21T19:50:51.934Z,99529.14
2019-03-21T19:53:24.370Z,99532.03
2019-03-21T19:56:07.822Z,99531.95
2019-03-21T19:58:30.943Z,99531.13
2019-03-21T20:01:03.348Z,99527.42
2019-03-21T20:03:36.873Z,99536.42
2019-03-21T20:06:09.300Z,99535.39
2019-03-21T20:08:41.911Z,99536.05
2019-03-21T20:11:14.440Z,99532.28
2019-03-21T20:13:47.924Z,99531.11
2019-03-21T20:16:20.370Z,99527.33
2019-03-21T20:18:52.875Z,99528.00
2019-03-21T20:21:25.326Z,99532.05
2019-03-21T20:23:57.779Z,99534.85
2019-03-21T20:26:30.339Z,99538.55
2019-03-21T20:29:02.832Z,99537.52
2019-03-21T20:31:35.205Z,99538.98
2019-03-21T20:34:07.784Z,99539.58
2019-03-21T20:36:41.163Z,99544.91
2019-03-21T20:39:13.702Z,99542.91
2019-03-21T20:41:46.276Z,99538.98
2019-03-21T20:44:18.688Z,99537.09
2019-03-21T20:46:51.124Z,99537.47
2019-03-21T20:49:23.551Z,99538.19
2019-03-21T20:51:55.919Z,99542.41
2019-03-21T20:54:28.361Z,99539.52
2019-03-21T20:57:02.153Z,99545.34
2019-03-21T20:59:34.575Z,99548.30
2019-03-21T21:02:07.044Z,99542.44
2019-03-21T21:04:39.472Z,99545.94
2019-03-21T21:07:11.871Z,99549.19
2019-03-21T21:09:44.314Z,99549.16
2019-03-21T21:12:16.787Z,99549.05
2019-03-21T21:14:49.226Z,99544.92
2019-03-21T21:17:21.743Z,99544.83
2019-03-21T21:19:54.174Z,99542.46
2019-03-21T21:22:26.645Z,99541.66
2019-03-21T21:24:59.060Z,99543.17
2019-03-21T21:27:31.443Z,99547.71
2019-03-21T21:30:03.921Z,99544.80
2019-03-21T21:32:36.459Z,99552.41
2019-03-21T21:35:10.260Z,99542.58
2019-03-21T21:37:42.868Z,99549.63
2019-03-21T21:40:15.810Z,99546.35
2019-03-21T21:42:48.415Z,99543.34
2019-03-21T21:45:21.044Z,99545.22
2019-03-21T21:47:53.463Z,99548.09
2019-03-21T21:50:25.867Z,99548.82
2019-03-21T21:52:58.233Z,99540.31
2019-03-21T21:55:30.645Z,99536.13
2019-03-21T21:58:04.132Z,99538.36
2019-03-21T22:00:36.574Z,99539.45
2019-03-21T22:03:08.927Z,99543.60
2019-03-21T22:05:41.512Z,99543.76
2019-03-21T22:08:13.951Z,99539.66
2019-03-21T22:10:46.467Z,99534.30
2019-03-21T22:13:18.867Z,99540.80
2019-03-21T22:15:51.260Z,99535.50
2019-03-21T22:18:23.678Z,99536.44
2019-03-21T22:20:56.209Z,99532.31
2019-03-21T22:23:28.762Z,99538.95
2019-03-21T22:26:01.169Z,99538.14
2019-03-21T22:28:33.559Z,99545.64
2019-03-21T22:31:05.946Z,99541.02
2019-03-21T22:33:38.357Z,99544.03
2019-03-21T22:36:10.749Z,99541.21
2019-03-21T22:38:44.226Z,99536.59
2019-03-21T22:41:18.929Z,99539.75
2019-03-21T22:43:50.827Z,99537.76
2019-03-21T22:46:23.198Z,99533.14
2019-03-21T22:48:55.728Z,99540.09
2019-03-21T22:51:28.092Z,99534.11
2019-03-21T22:54:00.446Z,99536.98
2019-03-21T22:56:41.101Z,99529.81
2019-03-21T22:59:07.024Z,99530.84
2019-03-21T23:01:39.408Z,99525.79
2019-03-21T23:04:11.933Z,99524.08
2019-03-21T23:06:44.316Z,99520.29
2019-03-21T23:09:16.724Z,99518.25
2019-03-21T23:11:49.100Z,99519.91
2019-03-21T23:14:21.466Z,99510.11
2019-03-21T23:16:53.920Z,99515.84
2019-03-21T23:19:26.459Z,99518.06
2019-03-21T23:21:58.861Z,99519.08
2019-03-21T23:24:31.250Z,99510.52
2019-03-21T23:27:03.739Z,99513.16
2019-03-21T23:29:36.179Z,99517.69
2019-03-21T23:32:08.611Z,99510.05
2019-03-21T23:34:40.967Z,99509.20
2019-03-21T23:37:13.330Z,99518.83
2019-03-21T23:39:45.698Z,99518.55
2019-03-21T23:42:19.370Z,99512.56
2019-03-21T23:44:51.699Z,99509.94
2019-03-21T23:47:24.076Z,99516.50
2019-03-21T23:49:56.442Z,99524.36
2019-03-21T23:52:28.856Z,99517.05
2019-03-21T23:55:01.202Z,99515.52
2019-03-21T23:57:33.600Z,99517.23
